Time;durP1;ratioP1;P1;durP2;ratioP2;P2;SDS_P1;SDS_P2;PMS_P1;PMS_P2;Temp;Humidity;BMP_temperature;BMP_pressure;BME280_temperature;BME280_humidity;BME280_pressure;Samples;Min_cycle;Max_cycle;Signal;HPM_P1;HPM_P2
2022/07/14 00:01:08;;;;;;;8.07;2.72;;;16.70;99.90;;;;;;5070997;28;20091;-60
2022/07/14 00:03:34;;;;;;;8.43;2.50;;;16.50;99.90;;;;;;5070189;28;20040;-60
2022/07/14 00:05:59;;;;;;;12.50;3.22;;;16.50;99.90;;;;;;5068513;28;20049;-60
2022/07/14 00:08:25;;;;;;;13.43;2.83;;;16.50;99.90;;;;;;5071198;28;20056;-60
2022/07/14 00:10:51;;;;;;;8.57;2.58;;;16.50;99.90;;;;;;5070901;28;20074;-60
2022/07/14 00:13:16;;;;;;;9.15;2.80;;;16.50;99.90;;;;;;5069807;28;20044;-60
2022/07/14 00:15:42;;;;;;;10.05;2.72;;;16.50;99.90;;;;;;5070221;28;20040;-60
2022/07/14 00:18:08;;;;;;;9.90;2.80;;;16.50;99.90;;;;;;5068836;28;20055;-60
2022/07/14 00:20:34;;;;;;;12.27;2.75;;;16.50;99.90;;;;;;5050108;28;20041;-62
2022/07/14 00:23:00;;;;;;;8.68;2.63;;;16.50;99.90;;;;;;5059466;28;20486;-60
2022/07/14 00:25:26;;;;;;;9.65;2.53;;;16.40;99.90;;;;;;5068810;28;20074;-60
2022/07/14 00:27:53;;;;;;;10.88;2.78;;;16.40;99.90;;;;;;5065831;28;20052;-59
2022/07/14 00:30:20;;;;;;;9.27;2.88;;;16.40;99.90;;;;;;5062325;28;20047;-60
2022/07/14 00:32:46;;;;;;;6.13;2.40;;;16.40;99.90;;;;;;5068662;28;20394;-60
2022/07/14 00:35:12;;;;;;;7.10;2.63;;;16.40;99.90;;;;;;5061133;28;20093;-60
2022/07/14 00:37:38;;;;;;;9.02;2.60;;;16.40;99.90;;;;;;5055953;28;20380;-63
2022/07/14 00:40:06;;;;;;;11.82;2.60;;;16.30;99.90;;;;;;5070631;28;20114;-59
2022/07/14 00:42:35;;;;;;;14.65;2.95;;;16.30;99.90;;;;;;5070839;28;20060;-60
2022/07/14 00:45:21;;;;;;;13.50;2.70;;;16.30;99.90;;;;;;5062391;28;20044;-59
2022/07/14 00:47:48;;;;;;;9.30;2.60;;;16.30;99.90;;;;;;5063380;28;20056;-60
2022/07/14 00:50:15;;;;;;;10.18;2.78;;;16.30;99.90;;;;;;5070757;28;20131;-62
2022/07/14 00:52:42;;;;;;;10.30;2.42;;;16.30;99.90;;;;;;5070194;28;20079;-61
2022/07/14 00:55:10;;;;;;;9.80;2.35;;;16.30;99.90;;;;;;5067059;28;20094;-61
2022/07/14 00:57:37;;;;;;;9.90;2.65;;;16.30;99.90;;;;;;5070250;28;20044;-61
2022/07/14 01:00:05;;;;;;;10.77;2.85;;;16.20;99.90;;;;;;5068227;28;20056;-59
2022/07/14 01:02:31;;;;;;;11.80;3.33;;;16.20;99.90;;;;;;5070606;28;20083;-60
2022/07/14 01:04:57;;;;;;;11.68;2.50;;;16.20;99.90;;;;;;5065894;28;20429;-60
2022/07/14 01:07:23;;;;;;;9.73;2.58;;;16.20;99.90;;;;;;5069027;28;20049;-60
2022/07/14 01:09:49;;;;;;;10.23;3.38;;;16.10;99.90;;;;;;5070041;28;20540;-60
2022/07/14 01:12:15;;;;;;;11.23;2.72;;;16.10;99.90;;;;;;5070039;28;20075;-60
2022/07/14 01:14:41;;;;;;;8.90;2.58;;;16.10;99.90;;;;;;5063277;28;20120;-63
2022/07/14 01:17:08;;;;;;;13.00;3.42;;;16.10;99.90;;;;;;5069384;28;20190;-59
2022/07/14 01:19:34;;;;;;;11.05;3.13;;;16.10;99.90;;;;;;5070003;28;20079;-60
2022/07/14 01:22:00;;;;;;;12.48;2.90;;;16.10;99.90;;;;;;5069517;28;20075;-60
2022/07/14 01:24:27;;;;;;;13.73;3.50;;;16.10;99.90;;;;;;5068338;28;20078;-60
2022/07/14 01:26:54;;;;;;;11.55;2.60;;;16.10;99.90;;;;;;5069558;28;20052;-60
2022/07/14 01:29:20;;;;;;;8.90;2.67;;;16.10;99.90;;;;;;5049867;28;20049;-60
2022/07/14 01:31:46;;;;;;;11.93;2.90;;;16.10;99.90;;;;;;5069273;28;20146;-60
2022/07/14 01:34:12;;;;;;;9.98;2.90;;;16.10;99.90;;;;;;5055988;28;20128;-61
2022/07/14 01:36:38;;;;;;;10.93;2.97;;;16.10;99.90;;;;;;5069025;28;20473;-60
2022/07/14 01:39:05;;;;;;;8.38;2.55;;;16.00;99.90;;;;;;5069228;28;20127;-61
2022/07/14 01:41:31;;;;;;;14.48;2.75;;;16.00;99.90;;;;;;5070273;28;20036;-60
2022/07/14 01:43:57;;;;;;;7.70;2.47;;;15.90;99.90;;;;;;5067230;28;20052;-60
2022/07/14 01:46:23;;;;;;;10.45;2.70;;;15.90;99.90;;;;;;5071870;28;20037;-60
2022/07/14 01:48:48;;;;;;;8.65;2.50;;;15.90;99.90;;;;;;5073207;28;20494;-61
2022/07/14 01:51:14;;;;;;;8.32;2.65;;;15.80;99.90;;;;;;5073942;28;20047;-60
2022/07/14 01:53:41;;;;;;;10.20;2.55;;;15.80;99.90;;;;;;5073397;28;20040;-60
2022/07/14 01:56:08;;;;;;;10.38;3.00;;;15.80;99.90;;;;;;5070655;28;20630;-60
2022/07/14 01:58:34;;;;;;;10.40;2.60;;;15.70;99.90;;;;;;5073937;28;20497;-60
2022/07/14 02:03:45;;;;;;;10.30;2.60;;;15.70;99.90;;;;;;5062890;28;20491;-60
2022/07/14 02:06:11;;;;;;;9.35;3.05;;;15.70;99.90;;;;;;5073277;28;20048;-60
2022/07/14 02:08:37;;;;;;;11.35;2.78;;;15.60;99.90;;;;;;5073576;28;20154;-60
2022/07/14 02:13:47;;;;;;;8.90;2.78;;;15.60;99.90;;;;;;5070567;28;20041;-60
2022/07/14 02:16:13;;;;;;;11.70;3.28;;;15.60;99.90;;;;;;5074014;28;20482;-61
2022/07/14 02:18:39;;;;;;;9.73;3.00;;;15.50;99.90;;;;;;5073773;28;20040;-61
2022/07/14 02:21:04;;;;;;;10.27;2.67;;;15.50;99.90;;;;;;5072498;28;20202;-61
2022/07/14 02:23:30;;;;;;;10.10;2.97;;;15.50;99.90;;;;;;5071409;28;20040;-61
2022/07/14 02:25:56;;;;;;;8.93;2.53;;;15.40;99.90;;;;;;5072222;28;20048;-61
2022/07/14 02:28:22;;;;;;;9.40;2.75;;;15.40;99.90;;;;;;5062788;28;20045;-61
2022/07/14 02:30:47;;;;;;;10.65;2.97;;;15.30;99.90;;;;;;5068902;28;20056;-61
2022/07/14 02:33:13;;;;;;;17.85;4.03;;;15.30;99.90;;;;;;5072536;28;20048;-61
2022/07/14 02:35:39;;;;;;;8.70;3.28;;;15.20;99.90;;;;;;5073493;28;20052;-60
2022/07/14 02:38:05;;;;;;;11.77;3.25;;;15.20;99.90;;;;;;5073418;28;20045;-60
2022/07/14 02:40:30;;;;;;;10.10;3.10;;;15.20;99.90;;;;;;5072204;28;20080;-61
2022/07/14 02:42:56;;;;;;;10.55;3.25;;;15.10;99.90;;;;;;5069694;28;20138;-61
2022/07/14 02:45:22;;;;;;;8.43;3.15;;;15.10;99.90;;;;;;5071805;28;20058;-61
2022/07/14 02:47:47;;;;;;;7.32;2.90;;;15.10;99.90;;;;;;5073151;28;20481;-60
2022/07/14 02:50:13;;;;;;;8.27;3.15;;;15.10;99.90;;;;;;5072746;28;20044;-61
2022/07/14 02:52:39;;;;;;;9.55;2.80;;;15.10;99.90;;;;;;5069056;28;20045;-61
2022/07/14 02:55:06;;;;;;;10.77;3.22;;;15.00;99.90;;;;;;5072818;28;20133;-60
2022/07/14 02:57:31;;;;;;;9.68;3.00;;;15.00;99.90;;;;;;5071062;28;20049;-62
2022/07/14 02:59:58;;;;;;;10.15;3.00;;;15.00;99.90;;;;;;5072087;28;20489;-61
2022/07/14 03:02:24;;;;;;;13.95;2.83;;;15.00;99.90;;;;;;5069843;28;20051;-60
2022/07/14 03:04:50;;;;;;;11.27;3.60;;;14.90;99.90;;;;;;5071360;28;20131;-61
2022/07/14 03:07:16;;;;;;;8.98;3.40;;;14.90;99.90;;;;;;5072505;28;20059;-61
2022/07/14 03:09:41;;;;;;;11.45;3.10;;;14.90;99.90;;;;;;5072298;28;20051;-60
2022/07/14 03:12:07;;;;;;;9.88;2.85;;;14.90;99.90;;;;;;5071164;28;20052;-61
2022/07/14 03:14:33;;;;;;;10.98;3.28;;;14.90;99.90;;;;;;5072478;28;20064;-60
2022/07/14 03:16:58;;;;;;;8.60;3.05;;;14.90;99.90;;;;;;5067147;28;20052;-61
2022/07/14 03:19:24;;;;;;;7.78;2.75;;;14.90;99.90;;;;;;5063814;28;20052;-60
2022/07/14 03:21:50;;;;;;;7.65;2.80;;;14.80;99.90;;;;;;5053320;28;20044;-61
2022/07/14 03:24:15;;;;;;;9.05;2.83;;;14.90;99.90;;;;;;5063658;28;20163;-60
2022/07/14 03:26:41;;;;;;;9.18;2.80;;;14.90;99.90;;;;;;5067376;28;20052;-61
2022/07/14 03:29:07;;;;;;;7.53;2.47;;;14.90;99.90;;;;;;5056704;28;20052;-61
2022/07/14 03:31:34;;;;;;;8.00;2.92;;;14.90;99.90;;;;;;5065055;28;20094;-60
2022/07/14 03:33:59;;;;;;;12.82;3.03;;;14.90;99.90;;;;;;5066259;28;20076;-64
2022/07/14 03:36:25;;;;;;;9.40;2.67;;;14.80;99.90;;;;;;5071366;28;20445;-60
2022/07/14 03:38:51;;;;;;;9.77;2.75;;;14.80;99.90;;;;;;5071038;28;20048;-61
2022/07/14 03:41:17;;;;;;;8.82;2.78;;;14.80;99.90;;;;;;5070209;28;20037;-61
2022/07/14 03:43:43;;;;;;;8.85;2.92;;;14.80;99.90;;;;;;5071518;28;20041;-61
2022/07/14 03:46:10;;;;;;;10.43;2.72;;;14.80;99.90;;;;;;5053031;28;20056;-61
2022/07/14 03:48:35;;;;;;;10.15;2.72;;;14.80;99.90;;;;;;5070754;28;20413;-62
2022/07/14 03:51:02;;;;;;;11.05;3.13;;;14.80;99.90;;;;;;5068979;28;20045;-64
2022/07/14 03:53:30;;;;;;;7.70;2.58;;;14.70;99.90;;;;;;5071929;28;20036;-60
2022/07/14 03:55:57;;;;;;;10.63;2.80;;;14.80;99.90;;;;;;5071464;28;20051;-61
2022/07/14 03:58:23;;;;;;;10.18;2.88;;;14.80;99.90;;;;;;5057317;28;20056;-61
2022/07/14 04:00:48;;;;;;;9.25;2.90;;;14.80;99.90;;;;;;5079750;28;20049;-60
2022/07/14 04:03:14;;;;;;;10.65;2.83;;;14.80;99.90;;;;;;5055225;28;20059;-60
2022/07/14 04:05:40;;;;;;;5.72;2.33;;;14.80;99.90;;;;;;5071251;28;20040;-60
2022/07/14 04:08:06;;;;;;;6.00;2.55;;;14.80;99.90;;;;;;5068848;28;20162;-61
2022/07/14 04:10:32;;;;;;;9.48;2.30;;;14.80;99.90;;;;;;5068220;28;20093;-61
2022/07/14 04:12:57;;;;;;;6.88;2.40;;;14.80;99.90;;;;;;5069316;28;20048;-60
2022/07/14 04:15:23;;;;;;;7.75;2.60;;;14.80;99.90;;;;;;5056802;28;20039;-60
2022/07/14 04:17:49;;;;;;;7.38;2.25;;;14.80;99.90;;;;;;5069786;28;20320;-60
2022/07/14 04:20:16;;;;;;;7.15;2.33;;;14.90;99.90;;;;;;5070489;28;20047;-59
2022/07/14 04:22:42;;;;;;;6.93;2.30;;;14.90;99.90;;;;;;5069448;28;20165;-60
2022/07/14 04:25:12;;;;;;;6.95;2.25;;;14.90;99.90;;;;;;5070018;28;20120;-60
2022/07/14 04:27:39;;;;;;;11.55;2.30;;;14.90;99.90;;;;;;5065974;28;20048;-60
2022/07/14 04:30:06;;;;;;;5.90;2.10;;;14.90;99.90;;;;;;5060711;28;20097;-63
2022/07/14 04:32:32;;;;;;;8.15;2.40;;;14.90;99.90;;;;;;5067042;28;20052;-60
2022/07/14 04:34:57;;;;;;;9.45;2.42;;;15.00;99.90;;;;;;5071187;28;20040;-60
2022/07/14 04:37:23;;;;;;;6.95;1.98;;;15.00;99.90;;;;;;5069812;28;20049;-60
2022/07/14 04:39:49;;;;;;;7.82;2.20;;;15.00;99.90;;;;;;5069990;28;20166;-60
2022/07/14 04:42:14;;;;;;;6.05;2.20;;;15.10;99.90;;;;;;5068166;28;20059;-60
2022/07/14 04:44:43;;;;;;;9.45;2.15;;;15.20;99.90;;;;;;5070707;28;20118;-60
2022/07/14 04:47:09;;;;;;;4.97;1.73;;;15.30;99.90;;;;;;5070341;28;20147;-60
2022/07/14 04:52:18;;;;;;;8.55;1.98;;;15.50;99.90;;;;;;5062252;28;20503;-60
2022/07/14 04:54:45;;;;;;;7.53;1.88;;;15.60;99.90;;;;;;5070540;28;20036;-60
2022/07/14 04:57:12;;;;;;;7.88;1.98;;;15.80;99.90;;;;;;5069181;28;20040;-60
2022/07/14 04:59:38;;;;;;;7.30;2.33;;;16.00;99.90;;;;;;5069919;28;20397;-60
2022/07/14 05:02:04;;;;;;;6.40;1.70;;;16.10;99.90;;;;;;5068791;28;20060;-60
2022/07/14 05:04:30;;;;;;;7.13;1.95;;;16.30;99.90;;;;;;5068607;28;20063;-60
2022/07/14 05:06:56;;;;;;;6.07;1.77;;;16.50;99.90;;;;;;5070480;28;20044;-60
2022/07/14 05:09:24;;;;;;;7.82;2.08;;;16.70;99.90;;;;;;5068625;28;20215;-61
2022/07/14 05:11:51;;;;;;;4.35;1.60;;;17.10;99.90;;;;;;5069261;28;20060;-61
2022/07/14 05:14:16;;;;;;;4.30;1.60;;;17.80;99.90;;;;;;5069844;28;20040;-62
2022/07/14 05:16:45;;;;;;;9.40;1.98;;;18.30;99.90;;;;;;5070352;28;20379;-61
2022/07/14 05:19:11;;;;;;;7.60;1.90;;;18.40;99.90;;;;;;5070167;28;20047;-64
2022/07/14 05:21:37;;;;;;;5.53;1.70;;;18.30;99.90;;;;;;5069501;28;20109;-61
2022/07/14 05:24:03;;;;;;;7.03;1.60;;;18.40;99.90;;;;;;5070303;28;20060;-61
2022/07/14 05:26:29;;;;;;;9.45;1.95;;;18.60;99.90;;;;;;5068436;28;20068;-62
2022/07/14 05:28:55;;;;;;;4.55;1.75;;;19.40;99.90;;;;;;5022191;28;20060;-61
2022/07/14 05:31:20;;;;;;;6.15;2.03;;;20.60;99.90;;;;;;5063071;28;20109;-61
2022/07/14 05:33:47;;;;;;;6.13;1.63;;;21.90;99.40;;;;;;5069022;28;20099;-61
2022/07/14 05:36:13;;;;;;;7.93;2.13;;;23.10;97.40;;;;;;5070150;28;20040;-64
2022/07/14 05:38:38;;;;;;;6.75;1.83;;;23.80;94.70;;;;;;5070402;28;20044;-61
2022/07/14 05:41:04;;;;;;;5.70;1.70;;;23.60;94.40;;;;;;5068985;28;20068;-61
2022/07/14 05:43:33;;;;;;;9.57;2.00;;;22.90;94.80;;;;;;5068360;28;20508;-61
2022/07/14 05:46:04;;;;;;;6.45;1.60;;;22.30;95.70;;;;;;5070042;28;20052;-61
2022/07/14 05:48:29;;;;;;;9.80;1.98;;;22.10;96.00;;;;;;5069709;28;20044;-61
2022/07/14 05:51:06;;;;;;;6.43;1.70;;;22.60;96.10;;;;;;5068658;28;20056;-61
2022/07/14 05:53:31;;;;;;;8.30;2.10;;;23.50;95.00;;;;;;5069215;28;20053;-61
2022/07/14 05:55:57;;;;;;;4.63;1.42;;;24.30;94.50;;;;;;5069057;28;20110;-61
2022/07/14 05:58:23;;;;;;;7.57;1.98;;;24.90;93.20;;;;;;5035259;28;20055;-61
2022/07/14 06:00:48;;;;;;;5.10;1.80;;;25.30;92.70;;;;;;5061883;28;20391;-60
2022/07/14 06:03:14;;;;;;;5.40;1.83;;;25.80;92.10;;;;;;5069058;28;20041;-61
2022/07/14 06:05:40;;;;;;;6.82;1.45;;;26.10;91.10;;;;;;5068407;28;20453;-62
2022/07/14 06:08:06;;;;;;;6.47;1.70;;;26.40;91.50;;;;;;5068358;28;20086;-61
2022/07/14 06:10:31;;;;;;;4.47;1.48;;;26.40;91.10;;;;;;5067894;28;20456;-63
2022/07/14 06:12:57;;;;;;;6.20;1.52;;;26.70;91.10;;;;;;5069092;28;20049;-61
2022/07/14 06:15:23;;;;;;;7.25;1.50;;;27.00;90.00;;;;;;5069172;28;20044;-61
2022/07/14 06:17:48;;;;;;;7.20;1.40;;;27.10;89.80;;;;;;5061952;28;20048;-61
2022/07/14 06:20:14;;;;;;;12.70;2.53;;;27.20;89.30;;;;;;5064624;28;20154;-61
2022/07/14 06:22:40;;;;;;;15.90;2.60;;;26.70;90.20;;;;;;5069107;28;20084;-61
2022/07/14 06:25:06;;;;;;;10.88;2.60;;;25.90;90.50;;;;;;5069051;28;20049;-61
2022/07/14 06:27:32;;;;;;;4.63;1.35;;;25.20;91.10;;;;;;5065406;28;20144;-61
2022/07/14 06:29:57;;;;;;;5.90;1.52;;;24.90;91.70;;;;;;5068231;28;20144;-61
2022/07/14 06:32:23;;;;;;;8.52;1.55;;;25.10;91.80;;;;;;5072117;28;20055;-61
2022/07/14 06:34:49;;;;;;;4.60;1.48;;;25.40;92.00;;;;;;5055207;28;20053;-61
2022/07/14 06:37:15;;;;;;;4.80;1.33;;;26.10;91.10;;;;;;5073599;28;20048;-61
2022/07/14 06:39:41;;;;;;;5.90;1.52;;;26.70;91.50;;;;;;5058080;28;20045;-61
2022/07/14 06:42:07;;;;;;;4.75;1.40;;;27.00;90.80;;;;;;5061106;28;20048;-61
2022/07/14 06:44:33;;;;;;;5.57;1.63;;;27.10;90.40;;;;;;5059259;28;20474;-62
2022/07/14 06:46:59;;;;;;;10.43;1.73;;;27.10;90.40;;;;;;5063582;28;20125;-61
2022/07/14 06:49:25;;;;;;;4.57;1.50;;;27.70;89.70;;;;;;5051714;28;20052;-62
2022/07/14 06:51:51;;;;;;;4.40;1.52;;;28.30;88.00;;;;;;5052291;28;20052;-61
2022/07/14 06:54:16;;;;;;;4.82;1.20;;;28.30;86.80;;;;;;5055705;28;20036;-61
2022/07/14 06:56:42;;;;;;;7.15;1.80;;;27.80;87.10;;;;;;5068852;28;20704;-61
2022/07/14 06:59:08;;;;;;;4.38;1.63;;;27.10;88.70;;;;;;5070118;28;20465;-61
2022/07/14 07:01:34;;;;;;;2.80;1.08;;;26.30;89.60;;;;;;5071346;28;20086;-60
2022/07/14 07:04:00;;;;;;;6.18;1.58;;;26.10;90.50;;;;;;5071645;28;20045;-60
2022/07/14 07:06:44;;;;;;;4.30;1.40;;;26.70;90.30;;;;;;5071725;28;20044;-63
2022/07/14 07:09:14;;;;;;;5.25;1.70;;;27.30;89.20;;;;;;5063560;28;20053;-60
2022/07/14 07:11:41;;;;;;;5.35;1.40;;;27.40;89.60;;;;;;5052617;28;20110;-61
2022/07/14 07:14:07;;;;;;;6.40;1.38;;;28.00;88.40;;;;;;5054430;28;20060;-61
2022/07/14 07:16:33;;;;;;;3.40;1.20;;;28.10;86.30;;;;;;5072328;28;20394;-61
2022/07/14 07:19:00;;;;;;;3.33;1.00;;;28.60;86.70;;;;;;5070698;28;20036;-62
2022/07/14 07:21:25;;;;;;;2.10;0.73;;;29.20;84.70;;;;;;5072763;28;20052;-64
2022/07/14 07:23:54;;;;;;;2.45;1.13;;;29.20;83.60;;;;;;5072555;28;20047;-61
2022/07/14 07:26:22;;;;;;;3.88;1.08;;;28.50;85.00;;;;;;5071114;28;20166;-63
2022/07/14 07:28:49;;;;;;;4.55;0.90;;;28.00;84.70;;;;;;5053554;28;20045;-61
2022/07/14 07:31:15;;;;;;;5.32;1.15;;;27.70;85.60;;;;;;5071955;28;20056;-62
2022/07/14 07:33:41;;;;;;;2.58;1.02;;;27.30;85.40;;;;;;5052550;28;20070;-61
2022/07/14 07:36:06;;;;;;;4.07;0.88;;;27.40;86.20;;;;;;5069112;28;20044;-61
2022/07/14 07:38:32;;;;;;;6.55;1.40;;;27.80;85.80;;;;;;5071636;28;20041;-61
2022/07/14 07:41:01;;;;;;;4.13;1.00;;;28.10;85.50;;;;;;5072271;28;20202;-60
2022/07/14 07:43:27;;;;;;;5.53;1.02;;;28.20;84.00;;;;;;5069341;28;20048;-61
2022/07/14 07:45:53;;;;;;;2.22;1.00;;;27.80;84.20;;;;;;5071927;28;20040;-61
2022/07/14 07:48:19;;;;;;;3.30;1.17;;;27.30;84.80;;;;;;5070926;28;20041;-61
2022/07/14 07:50:46;;;;;;;4.30;1.05;;;26.60;85.60;;;;;;5064493;28;20143;-62
2022/07/14 07:53:12;;;;;;;5.22;1.08;;;26.60;86.70;;;;;;5071137;28;20090;-61
2022/07/14 07:55:38;;;;;;;3.13;0.82;;;26.80;85.90;;;;;;5061449;28;20461;-62
2022/07/14 07:58:04;;;;;;;2.22;0.70;;;26.90;85.60;;;;;;5058816;28;21722;-60
2022/07/14 08:00:30;;;;;;;3.30;1.10;;;27.30;84.40;;;;;;5041765;28;20049;-67
2022/07/14 08:02:57;;;;;;;2.67;0.82;;;27.60;84.00;;;;;;5058837;28;20049;-61
2022/07/14 08:05:25;;;;;;;4.82;0.88;;;27.70;83.60;;;;;;5051639;28;20368;-62
2022/07/14 08:07:52;;;;;;;4.25;1.00;;;28.00;84.20;;;;;;5051492;28;20049;-60
2022/07/14 08:10:19;;;;;;;2.25;1.08;;;28.20;83.40;;;;;;5054965;28;20060;-61
2022/07/14 08:12:45;;;;;;;3.38;0.93;;;28.20;83.90;;;;;;5055398;28;20049;-61
2022/07/14 08:15:12;;;;;;;2.65;1.10;;;28.20;84.00;;;;;;5063834;28;20746;-61
2022/07/14 08:17:38;;;;;;;3.63;1.08;;;27.80;83.60;;;;;;5069786;28;20455;-60
2022/07/14 08:20:07;;;;;;;2.80;0.65;;;27.00;83.90;;;;;;5064408;28;20048;-61
2022/07/14 08:22:34;;;;;;;3.55;1.33;;;26.20;85.70;;;;;;5063017;28;20055;-65
2022/07/14 08:24:59;;;;;;;16.27;2.72;;;26.00;85.30;;;;;;5051665;28;20387;-61
2022/07/14 08:27:26;;;;;;;3.58;1.00;;;26.10;86.30;;;;;;5055768;28;20052;-61
2022/07/14 08:29:53;;;;;;;4.22;0.98;;;26.00;87.50;;;;;;5058980;28;20061;-62
2022/07/14 08:32:49;;;;;;;4.22;1.20;;;26.70;86.50;;;;;;5071596;28;20051;-61
2022/07/14 08:35:17;;;;;;;2.45;0.70;;;27.40;85.00;;;;;;5063320;28;20371;-61
2022/07/14 08:37:43;;;;;;;5.85;1.08;;;27.60;84.90;;;;;;5069275;28;20140;-62
2022/07/14 08:40:14;;;;;;;4.93;1.13;;;27.70;84.80;;;;;;5071135;28;20124;-62
2022/07/14 08:42:46;;;;;;;4.10;1.33;;;27.50;84.40;;;;;;5066489;28;20493;-62
2022/07/14 08:45:14;;;;;;;3.03;1.00;;;27.00;85.00;;;;;;5071307;28;20056;-61
2022/07/14 08:47:41;;;;;;;4.60;1.35;;;26.60;85.80;;;;;;5057255;28;20076;-61
2022/07/14 08:50:09;;;;;;;5.20;1.30;;;26.20;86.70;;;;;;5071370;28;20044;-62
2022/07/14 08:52:36;;;;;;;3.50;1.10;;;26.00;87.50;;;;;;5069448;28;20044;-61
2022/07/14 08:55:06;;;;;;;3.33;1.05;;;25.80;87.10;;;;;;5069483;28;20139;-61
2022/07/14 08:57:32;;;;;;;4.80;1.10;;;25.70;86.90;;;;;;5062280;28;20055;-61
2022/07/14 08:59:57;;;;;;;2.13;0.80;;;25.50;87.40;;;;;;5070205;28;20123;-62
2022/07/14 09:02:23;;;;;;;3.20;0.80;;;25.20;88.20;;;;;;5058725;28;20052;-62
2022/07/14 09:04:49;;;;;;;3.15;0.98;;;25.40;88.20;;;;;;5050256;28;20460;-61
2022/07/14 09:07:33;;;;;;;2.42;1.00;;;25.30;87.70;;;;;;5054684;28;20063;-62
2022/07/14 09:10:09;;;;;;;1.95;0.80;;;25.40;87.10;;;;;;5052446;28;20088;-61
2022/07/14 09:12:36;;;;;;;2.70;0.70;;;25.40;87.30;;;;;;5052923;28;20049;-61
2022/07/14 09:17:53;;;;;;;3.33;1.02;;;25.70;87.20;;;;;;5058788;28;20053;-60
2022/07/14 09:20:20;;;;;;;2.45;0.93;;;25.50;87.10;;;;;;5051139;28;20049;-61
2022/07/14 09:22:45;;;;;;;3.85;0.98;;;24.90;87.70;;;;;;5047723;28;20121;-61
2022/07/14 09:25:15;;;;;;;2.70;1.20;;;24.30;89.40;;;;;;5050838;28;20045;-61
2022/07/14 09:27:42;;;;;;;3.80;1.00;;;24.10;90.00;;;;;;5049156;28;20576;-64
2022/07/14 09:30:10;;;;;;;3.75;1.10;;;24.20;89.40;;;;;;5061038;28;20048;-61
2022/07/14 09:32:53;;;;;;;2.78;1.00;;;24.60;88.90;;;;;;5054233;28;21058;-61
2022/07/14 09:35:27;;;;;;;3.95;1.20;;;24.70;88.60;;;;;;5055867;28;20044;-61
2022/07/14 09:37:54;;;;;;;4.70;1.00;;;25.00;88.50;;;;;;5047743;28;20053;-62
2022/07/14 09:40:22;;;;;;;3.70;0.82;;;25.40;87.60;;;;;;5049385;28;20423;-62
2022/07/14 09:42:58;;;;;;;3.15;1.10;;;25.90;88.00;;;;;;5051484;28;20049;-61
2022/07/14 09:45:36;;;;;;;2.95;1.00;;;26.40;86.80;;;;;;5052087;28;20116;-61
2022/07/14 09:48:09;;;;;;;3.17;1.00;;;26.90;86.20;;;;;;5049970;28;20045;-61
2022/07/14 09:50:47;;;;;;;3.53;1.00;;;27.00;85.30;;;;;;5048332;28;20052;-61
2022/07/14 09:53:17;;;;;;;2.85;0.98;;;26.80;85.70;;;;;;5048974;28;20126;-60
2022/07/14 09:55:48;;;;;;;3.17;0.88;;;26.20;85.60;;;;;;5053139;28;20045;-64
2022/07/14 09:58:15;;;;;;;4.72;1.40;;;25.50;87.90;;;;;;5050452;28;20410;-61
2022/07/14 10:00:42;;;;;;;2.88;1.02;;;25.20;89.60;;;;;;5056880;28;20063;-61
2022/07/14 10:03:08;;;;;;;2.78;1.02;;;25.20;87.90;;;;;;5055947;28;20132;-60
2022/07/14 10:05:35;;;;;;;2.95;1.00;;;25.40;87.40;;;;;;5058345;28;20044;-60
2022/07/14 10:08:05;;;;;;;2.92;0.90;;;25.30;88.10;;;;;;5073032;28;20049;-60
2022/07/14 10:10:35;;;;;;;6.03;1.15;;;25.30;87.90;;;;;;5073419;28;20454;-60
2022/07/14 10:13:04;;;;;;;4.22;1.25;;;25.20;87.30;;;;;;5068798;28;20093;-60
2022/07/14 10:15:31;;;;;;;3.42;1.00;;;25.40;88.00;;;;;;5056647;28;20071;-60
2022/07/14 10:17:59;;;;;;;4.60;1.17;;;25.20;87.20;;;;;;5073849;28;20501;-61
2022/07/14 10:20:25;;;;;;;2.10;0.80;;;25.00;87.60;;;;;;5071613;28;20062;-60
2022/07/14 10:22:55;;;;;;;2.22;0.93;;;24.90;88.40;;;;;;5060518;28;20080;-60
2022/07/14 10:25:20;;;;;;;2.53;0.93;;;25.10;88.70;;;;;;5065501;28;20040;-60
2022/07/14 10:27:48;;;;;;;4.13;1.15;;;25.20;88.70;;;;;;5066637;28;20124;-64
2022/07/14 10:30:15;;;;;;;2.30;0.75;;;25.20;88.80;;;;;;5066339;28;20063;-60
2022/07/14 10:32:59;;;;;;;2.15;0.95;;;25.10;89.40;;;;;;5072277;28;20086;-60
2022/07/14 10:35:28;;;;;;;4.00;1.17;;;25.20;89.80;;;;;;5074184;28;20456;-60
2022/07/14 10:38:15;;;;;;;3.58;1.02;;;25.10;89.20;;;;;;5072971;28;20101;-60
2022/07/14 10:41:04;;;;;;;4.95;1.20;;;25.10;89.00;;;;;;5067173;28;20447;-61
2022/07/14 10:43:57;;;;;;;4.35;0.90;;;25.00;87.70;;;;;;5074149;28;20040;-61
2022/07/14 10:46:44;;;;;;;4.00;1.02;;;25.00;87.90;;;;;;5057468;28;20095;-61
2022/07/14 10:49:12;;;;;;;3.85;1.08;;;24.50;88.50;;;;;;5073118;28;20123;-64
2022/07/14 10:51:53;;;;;;;2.80;0.95;;;24.10;88.20;;;;;;5068118;28;20461;-60
2022/07/14 10:54:29;;;;;;;2.72;1.02;;;24.00;89.80;;;;;;5072162;28;20071;-61
2022/07/14 10:57:09;;;;;;;4.20;1.25;;;23.80;90.10;;;;;;5073284;28;20052;-60
2022/07/14 10:59:35;;;;;;;3.28;0.88;;;24.00;90.50;;;;;;5072318;28;20041;-61
2022/07/14 11:02:13;;;;;;;4.15;0.85;;;24.10;90.60;;;;;;5072758;28;20520;-60
2022/07/14 11:05:03;;;;;;;3.65;0.98;;;24.30;90.60;;;;;;5073591;28;20052;-61
2022/07/14 11:07:44;;;;;;;3.40;0.82;;;24.40;90.30;;;;;;5073768;28;20055;-60
2022/07/14 11:10:19;;;;;;;2.70;0.85;;;24.00;90.30;;;;;;5070277;28;20348;-61
2022/07/14 11:13:00;;;;;;;4.35;1.80;;;23.70;90.80;;;;;;5065686;28;20058;-61
2022/07/14 11:15:43;;;;;;;2.47;0.73;;;23.60;90.90;;;;;;5071737;28;20053;-61
2022/07/14 11:18:18;;;;;;;3.77;1.03;;;23.70;91.10;;;;;;5072978;28;20048;-61
2022/07/14 11:21:07;;;;;;;2.63;1.02;;;23.60;91.00;;;;;;5072290;28;20040;-61
2022/07/14 11:23:35;;;;;;;6.55;1.20;;;23.60;91.10;;;;;;5055621;28;20418;-60
2022/07/14 11:26:04;;;;;;;4.78;1.50;;;23.40;91.40;;;;;;5072521;28;20062;-60
2022/07/14 11:28:49;;;;;;;3.30;1.05;;;23.50;91.70;;;;;;5067400;28;20076;-61
2022/07/14 11:31:22;;;;;;;5.22;1.48;;;23.70;91.50;;;;;;5066344;28;20033;-60
2022/07/14 11:36:43;;;;;;;5.65;1.15;;;24.00;91.40;;;;;;5073079;28;20503;-60
2022/07/14 11:39:15;;;;;;;5.35;1.38;;;24.10;91.10;;;;;;5070495;28;20056;-60
2022/07/14 11:41:46;;;;;;;2.50;1.08;;;24.20;91.40;;;;;;5061681;28;20045;-60
2022/07/14 11:44:40;;;;;;;2.45;0.85;;;23.90;91.10;;;;;;5069910;28;20037;-60
2022/07/14 11:47:26;;;;;;;4.78;1.15;;;24.00;91.60;;;;;;5061076;28;20132;-60
2022/07/14 11:49:58;;;;;;;2.70;1.10;;;23.80;91.40;;;;;;5069258;28;20448;-62
2022/07/14 11:52:27;;;;;;;3.65;1.02;;;23.90;91.10;;;;;;5071880;28;20048;-60
2022/07/14 11:54:54;;;;;;;3.05;1.20;;;23.70;90.80;;;;;;5072340;28;20040;-60
2022/07/14 11:57:21;;;;;;;6.47;1.00;;;23.80;90.80;;;;;;5072385;28;20048;-60
2022/07/14 11:59:47;;;;;;;3.35;1.02;;;23.90;90.70;;;;;;5055281;28;20057;-59
2022/07/14 12:02:14;;;;;;;3.88;1.10;;;23.80;90.70;;;;;;5070937;28;20056;-60
2022/07/14 12:04:52;;;;;;;2.83;0.90;;;23.70;90.80;;;;;;5072205;28;20516;-60
2022/07/14 12:07:19;;;;;;;4.85;1.20;;;23.40;91.00;;;;;;5074606;28;20119;-60
2022/07/14 12:09:46;;;;;;;4.25;1.05;;;23.10;91.50;;;;;;5059948;28;20053;-61
2022/07/14 12:12:12;;;;;;;5.68;1.23;;;22.80;91.80;;;;;;5070871;28;20397;-61
2022/07/14 12:14:44;;;;;;;3.42;1.20;;;22.80;91.90;;;;;;5072466;28;20059;-60
2022/07/14 12:17:10;;;;;;;4.35;1.20;;;22.80;91.70;;;;;;5070558;28;20059;-60
2022/07/14 12:19:36;;;;;;;3.97;1.10;;;22.90;91.60;;;;;;5065247;28;20044;-59
2022/07/14 12:22:04;;;;;;;4.60;1.23;;;23.10;91.30;;;;;;5071328;28;20437;-60
2022/07/14 12:24:31;;;;;;;3.33;1.20;;;23.30;91.20;;;;;;5072029;28;20115;-60
2022/07/14 12:27:04;;;;;;;3.72;0.90;;;23.30;90.60;;;;;;5071163;28;20052;-60
2022/07/14 12:29:31;;;;;;;2.95;1.25;;;23.30;91.30;;;;;;5069060;28;20107;-60
2022/07/14 12:31:58;;;;;;;4.38;1.10;;;23.40;91.00;;;;;;5061464;28;20064;-59
2022/07/14 12:34:26;;;;;;;4.68;1.35;;;23.70;90.90;;;;;;5061508;28;20051;-59
2022/07/14 12:36:55;;;;;;;3.65;1.30;;;23.70;90.50;;;;;;5071700;28;20049;-60
2022/07/14 12:39:21;;;;;;;3.67;1.00;;;23.70;90.60;;;;;;5055682;28;20049;-60
2022/07/14 12:41:47;;;;;;;3.33;0.90;;;23.60;90.10;;;;;;5071040;28;20543;-60
2022/07/14 12:44:13;;;;;;;4.57;1.20;;;23.60;89.80;;;;;;5057539;28;20116;-59
2022/07/14 12:46:40;;;;;;;4.57;1.10;;;23.60;90.00;;;;;;5053338;28;20127;-59
2022/07/14 12:49:08;;;;;;;3.65;1.20;;;23.40;90.10;;;;;;5069962;28;20052;-60
2022/07/14 12:51:36;;;;;;;2.85;0.85;;;23.50;90.00;;;;;;5070155;28;20111;-60
2022/07/14 12:54:30;;;;;;;3.67;0.80;;;23.50;89.30;;;;;;5068565;28;20113;-60
2022/07/14 12:56:56;;;;;;;4.10;1.10;;;23.60;89.90;;;;;;5069797;28;20060;-60
2022/07/14 12:59:39;;;;;;;10.85;1.20;;;23.60;90.00;;;;;;5063118;28;20118;-60
2022/07/14 13:02:07;;;;;;;3.28;1.08;;;23.30;90.30;;;;;;5053778;28;20061;-60
2022/07/14 13:04:47;;;;;;;3.72;1.10;;;23.10;90.20;;;;;;5070016;28;20402;-60